sensor_id;sensor_type;location;lat;lon;timestamp;pressure;altitude;pressure_sealevel;temperature;humidity
28267;BME280;15525;45.568;5.448;2023-04-22T00:01:44;97453.72;;;16.86;47.09
28267;BME280;15525;45.568;5.448;2023-04-22T00:04:09;97420.22;;;16.79;47.02
28267;BME280;15525;45.568;5.448;2023-04-22T00:06:35;97407.50;;;16.71;46.73
28267;BME280;15525;45.568;5.448;2023-04-22T00:09:01;97428.91;;;16.84;46.84
28267;BME280;15525;45.568;5.448;2023-04-22T00:11:27;97415.75;;;16.74;47.08
28267;BME280;15525;45.568;5.448;2023-04-22T00:13:53;97430.03;;;16.83;46.96
28267;BME280;15525;45.568;5.448;2023-04-22T00:16:18;97433.09;;;16.73;47.02
28267;BME280;15525;45.568;5.448;2023-04-22T00:18:43;97441.22;;;16.73;47.67
28267;BME280;15525;45.568;5.448;2023-04-22T00:21:09;97453.13;;;16.72;48.24
28267;BME280;15525;45.568;5.448;2023-04-22T00:23:35;97457.91;;;16.67;48.18
28267;BME280;15525;45.568;5.448;2023-04-22T00:26:00;97431.06;;;16.53;47.94
28267;BME280;15525;45.568;5.448;2023-04-22T00:28:26;97451.06;;;16.69;48.03
28267;BME280;15525;45.568;5.448;2023-04-22T00:30:51;97436.19;;;16.46;49.09
28267;BME280;15525;45.568;5.448;2023-04-22T00:33:17;97467.31;;;16.52;48.72
28267;BME280;15525;45.568;5.448;2023-04-22T00:35:45;97435.25;;;16.17;49.22
28267;BME280;15525;45.568;5.448;2023-04-22T00:38:10;97443.19;;;16.22;49.41
28267;BME280;15525;45.568;5.448;2023-04-22T00:40:35;97428.25;;;16.07;49.87
28267;BME280;15525;45.568;5.448;2023-04-22T00:43:02;97460.19;;;16.14;50.08
28267;BME280;15525;45.568;5.448;2023-04-22T00:45:29;97454.19;;;16.08;50.46
28267;BME280;15525;45.568;5.448;2023-04-22T00:47:55;97428.59;;;15.89;49.98
28267;BME280;15525;45.568;5.448;2023-04-22T00:50:21;97448.44;;;16.10;50.24
28267;BME280;15525;45.568;5.448;2023-04-22T00:52:46;97411.47;;;15.76;50.34
28267;BME280;15525;45.568;5.448;2023-04-22T00:55:11;97442.25;;;15.84;50.86
28267;BME280;15525;45.568;5.448;2023-04-22T00:57:38;97454.47;;;15.73;50.91
28267;BME280;15525;45.568;5.448;2023-04-22T01:00:04;97444.94;;;15.67;51.12
28267;BME280;15525;45.568;5.448;2023-04-22T01:02:30;97417.94;;;15.50;51.16
28267;BME280;15525;45.568;5.448;2023-04-22T01:04:56;97444.47;;;15.73;51.13
28267;BME280;15525;45.568;5.448;2023-04-22T01:07:22;97403.66;;;15.49;51.04
28267;BME280;15525;45.568;5.448;2023-04-22T01:09:48;97396.19;;;15.38;51.41
28267;BME280;15525;45.568;5.448;2023-04-22T01:12:14;97434.31;;;15.62;51.04
28267;BME280;15525;45.568;5.448;2023-04-22T01:14:39;97423.66;;;15.57;51.37
28267;BME280;15525;45.568;5.448;2023-04-22T01:17:05;97423.66;;;15.65;51.32
28267;BME280;15525;45.568;5.448;2023-04-22T01:19:34;97443.84;;;15.76;51.22
28267;BME280;15525;45.568;5.448;2023-04-22T01:22:00;97430.50;;;15.88;51.20
28267;BME280;15525;45.568;5.448;2023-04-22T01:24:26;97433.53;;;15.95;50.78
28267;BME280;15525;45.568;5.448;2023-04-22T01:26:51;97359.06;;;15.43;51.13
28267;BME280;15525;45.568;5.448;2023-04-22T01:29:17;97423.22;;;15.80;50.89
28267;BME280;15525;45.568;5.448;2023-04-22T01:31:43;97394.28;;;15.64;51.16
28267;BME280;15525;45.568;5.448;2023-04-22T01:34:08;97408.25;;;15.57;51.14
28267;BME280;15525;45.568;5.448;2023-04-22T01:36:35;97427.16;;;15.57;51.26
28267;BME280;15525;45.568;5.448;2023-04-22T01:39:00;97434.91;;;15.50;51.76
28267;BME280;15525;45.568;5.448;2023-04-22T01:41:26;97426.34;;;15.40;51.63
28267;BME280;15525;45.568;5.448;2023-04-22T01:43:52;97433.50;;;15.44;51.85
28267;BME280;15525;45.568;5.448;2023-04-22T01:46:18;97438.88;;;15.44;51.61
28267;BME280;15525;45.568;5.448;2023-04-22T01:48:43;97436.00;;;15.41;52.32
28267;BME280;15525;45.568;5.448;2023-04-22T01:51:15;97444.44;;;15.39;52.09
28267;BME280;15525;45.568;5.448;2023-04-22T01:53:41;97445.63;;;15.33;52.33
28267;BME280;15525;45.568;5.448;2023-04-22T01:56:07;97423.84;;;15.13;52.49
28267;BME280;15525;45.568;5.448;2023-04-22T01:58:32;97452.66;;;15.34;52.92
28267;BME280;15525;45.568;5.448;2023-04-22T02:00:58;97464.66;;;15.20;52.84
28267;BME280;15525;45.568;5.448;2023-04-22T02:03:23;97432.31;;;15.28;52.46
28267;BME280;15525;45.568;5.448;2023-04-22T02:05:49;97444.28;;;15.44;51.90
28267;BME280;15525;45.568;5.448;2023-04-22T02:08:14;97429.53;;;15.42;51.69
28267;BME280;15525;45.568;5.448;2023-04-22T02:10:39;97422.63;;;15.27;52.09
28267;BME280;15525;45.568;5.448;2023-04-22T02:13:05;97437.09;;;15.31;52.20
28267;BME280;15525;45.568;5.448;2023-04-22T02:15:30;97469.03;;;15.55;52.04
28267;BME280;15525;45.568;5.448;2023-04-22T02:17:56;97449.03;;;15.47;52.17
28267;BME280;15525;45.568;5.448;2023-04-22T02:20:21;97418.97;;;15.23;51.95
28267;BME280;15525;45.568;5.448;2023-04-22T02:22:46;97417.69;;;15.21;52.40
28267;BME280;15525;45.568;5.448;2023-04-22T02:25:12;97431.53;;;15.28;52.11
28267;BME280;15525;45.568;5.448;2023-04-22T02:27:38;97435.31;;;15.27;52.49
28267;BME280;15525;45.568;5.448;2023-04-22T02:30:04;97444.75;;;15.46;52.18
28267;BME280;15525;45.568;5.448;2023-04-22T02:32:31;97433.16;;;15.46;52.20
28267;BME280;15525;45.568;5.448;2023-04-22T02:34:57;97413.19;;;15.47;52.15
28267;BME280;15525;45.568;5.448;2023-04-22T02:37:23;97411.25;;;15.47;51.49
28267;BME280;15525;45.568;5.448;2023-04-22T02:39:48;97425.88;;;15.46;52.17
28267;BME280;15525;45.568;5.448;2023-04-22T02:42:14;97452.84;;;15.55;52.26
28267;BME280;15525;45.568;5.448;2023-04-22T02:44:39;97445.88;;;15.54;52.45
28267;BME280;15525;45.568;5.448;2023-04-22T02:47:05;97429.19;;;15.43;52.77
28267;BME280;15525;45.568;5.448;2023-04-22T02:49:31;97430.75;;;15.36;52.22
28267;BME280;15525;45.568;5.448;2023-04-22T02:51:56;97415.31;;;15.11;52.86
28267;BME280;15525;45.568;5.448;2023-04-22T02:54:22;97428.78;;;15.11;52.71
28267;BME280;15525;45.568;5.448;2023-04-22T02:56:47;97411.03;;;15.10;52.55
28267;BME280;15525;45.568;5.448;2023-04-22T02:59:12;97425.34;;;15.27;52.65
28267;BME280;15525;45.568;5.448;2023-04-22T03:01:38;97411.19;;;15.22;52.23
28267;BME280;15525;45.568;5.448;2023-04-22T03:04:03;97431.53;;;15.28;52.99
28267;BME280;15525;45.568;5.448;2023-04-22T03:06:29;97437.03;;;15.14;53.09
28267;BME280;15525;45.568;5.448;2023-04-22T03:08:55;97442.91;;;15.16;52.81
28267;BME280;15525;45.568;5.448;2023-04-22T03:11:20;97424.81;;;15.17;53.10
28267;BME280;15525;45.568;5.448;2023-04-22T03:13:46;97403.41;;;15.03;53.32
28267;BME280;15525;45.568;5.448;2023-04-22T03:16:11;97424.44;;;15.01;53.07
28267;BME280;15525;45.568;5.448;2023-04-22T03:18:37;97449.84;;;15.09;53.17
28267;BME280;15525;45.568;5.448;2023-04-22T03:21:03;97436.97;;;14.97;53.45
28267;BME280;15525;45.568;5.448;2023-04-22T03:23:28;97410.66;;;14.94;53.20
28267;BME280;15525;45.568;5.448;2023-04-22T03:25:53;97423.97;;;14.99;53.05
28267;BME280;15525;45.568;5.448;2023-04-22T03:28:19;97368.03;;;14.57;53.15
28267;BME280;15525;45.568;5.448;2023-04-22T03:30:45;97381.66;;;14.52;53.68
28267;BME280;15525;45.568;5.448;2023-04-22T03:33:11;97433.78;;;14.95;53.61
28267;BME280;15525;45.568;5.448;2023-04-22T03:35:36;97408.34;;;14.79;53.32
28267;BME280;15525;45.568;5.448;2023-04-22T03:38:02;97397.88;;;14.69;53.76
28267;BME280;15525;45.568;5.448;2023-04-22T03:40:27;97408.56;;;14.83;53.94
28267;BME280;15525;45.568;5.448;2023-04-22T03:42:53;97436.97;;;14.97;53.33
28267;BME280;15525;45.568;5.448;2023-04-22T03:45:18;97436.34;;;15.00;53.54
28267;BME280;15525;45.568;5.448;2023-04-22T03:47:43;97435.69;;;14.95;53.93
28267;BME280;15525;45.568;5.448;2023-04-22T03:50:09;97445.72;;;15.11;53.47
28267;BME280;15525;45.568;5.448;2023-04-22T03:52:35;97428.88;;;14.97;53.58
28267;BME280;15525;45.568;5.448;2023-04-22T03:55:00;97419.91;;;14.71;53.74
28267;BME280;15525;45.568;5.448;2023-04-22T03:57:26;97417.69;;;14.73;53.52
28267;BME280;15525;45.568;5.448;2023-04-22T03:59:51;97453.78;;;14.94;54.10
28267;BME280;15525;45.568;5.448;2023-04-22T04:02:16;97439.50;;;14.94;54.13
28267;BME280;15525;45.568;5.448;2023-04-22T04:04:42;97375.59;;;14.47;54.30
28267;BME280;15525;45.568;5.448;2023-04-22T04:07:07;97443.19;;;14.67;54.12
28267;BME280;15525;45.568;5.448;2023-04-22T04:09:33;97444.16;;;14.71;54.10
28267;BME280;15525;45.568;5.448;2023-04-22T04:11:58;97469.09;;;14.85;54.34
28267;BME280;15525;45.568;5.448;2023-04-22T04:14:24;97448.31;;;14.77;54.14
28267;BME280;15525;45.568;5.448;2023-04-22T04:16:49;97462.94;;;14.93;53.83
28267;BME280;15525;45.568;5.448;2023-04-22T04:19:15;97441.72;;;14.92;53.78
28267;BME280;15525;45.568;5.448;2023-04-22T04:21:40;97469.22;;;15.11;53.89
28267;BME280;15525;45.568;5.448;2023-04-22T04:24:06;97419.94;;;14.80;53.59
28267;BME280;15525;45.568;5.448;2023-04-22T04:26:32;97479.63;;;15.04;54.08
28267;BME280;15525;45.568;5.448;2023-04-22T04:28:58;97441.19;;;14.81;54.23
28267;BME280;15525;45.568;5.448;2023-04-22T04:31:26;97452.22;;;15.02;54.04
28267;BME280;15525;45.568;5.448;2023-04-22T04:33:52;97471.81;;;15.33;53.75
28267;BME280;15525;45.568;5.448;2023-04-22T04:36:17;97460.19;;;15.15;53.92
28267;BME280;15525;45.568;5.448;2023-04-22T04:38:44;97480.28;;;15.40;53.63
28267;BME280;15525;45.568;5.448;2023-04-22T04:41:11;97459.72;;;15.22;53.72
28267;BME280;15525;45.568;5.448;2023-04-22T04:43:36;97452.16;;;15.32;53.61
28267;BME280;15525;45.568;5.448;2023-04-22T04:46:03;97460.78;;;15.51;53.16
28267;BME280;15525;45.568;5.448;2023-04-22T04:48:28;97484.28;;;15.68;53.53
28267;BME280;15525;45.568;5.448;2023-04-22T04:50:53;97480.00;;;15.75;52.96
28267;BME280;15525;45.568;5.448;2023-04-22T04:53:20;97490.69;;;15.89;52.86
28267;BME280;15525;45.568;5.448;2023-04-22T04:55:46;97507.69;;;15.98;53.10
28267;BME280;15525;45.568;5.448;2023-04-22T04:58:11;97493.06;;;15.90;53.14
28267;BME280;15525;45.568;5.448;2023-04-22T05:00:37;97512.78;;;15.99;53.10
28267;BME280;15525;45.568;5.448;2023-04-22T05:03:02;97503.25;;;16.02;52.70
28267;BME280;15525;45.568;5.448;2023-04-22T05:05:28;97487.50;;;16.04;52.67
28267;BME280;15525;45.568;5.448;2023-04-22T05:07:53;97493.88;;;15.99;52.80
28267;BME280;15525;45.568;5.448;2023-04-22T05:10:19;97494.97;;;15.81;53.56
28267;BME280;15525;45.568;5.448;2023-04-22T05:12:45;97482.91;;;15.87;53.29
28267;BME280;15525;45.568;5.448;2023-04-22T05:15:12;97506.88;;;15.89;53.50
28267;BME280;15525;45.568;5.448;2023-04-22T05:17:38;97512.78;;;15.99;53.35
28267;BME280;15525;45.568;5.448;2023-04-22T05:20:04;97508.50;;;16.24;52.96
28267;BME280;15525;45.568;5.448;2023-04-22T05:22:29;97494.50;;;16.22;52.75
28267;BME280;15525;45.568;5.448;2023-04-22T05:24:55;97497.19;;;16.30;52.70
28267;BME280;15525;45.568;5.448;2023-04-22T05:27:20;97496.91;;;16.40;52.71
28267;BME280;15525;45.568;5.448;2023-04-22T05:29:45;97506.25;;;16.51;52.96
28267;BME280;15525;45.568;5.448;2023-04-22T05:32:11;97504.03;;;16.45;52.40
28267;BME280;15525;45.568;5.448;2023-04-22T05:34:36;97504.03;;;16.36;52.54
28267;BME280;15525;45.568;5.448;2023-04-22T05:37:02;97522.66;;;16.46;52.62
28267;BME280;15525;45.568;5.448;2023-04-22T05:39:28;97513.41;;;16.47;52.70
28267;BME280;15525;45.568;5.448;2023-04-22T05:41:54;97503.28;;;16.44;52.54
28267;BME280;15525;45.568;5.448;2023-04-22T05:44:19;97511.19;;;16.58;52.72
28267;BME280;15525;45.568;5.448;2023-04-22T05:46:45;97518.31;;;16.71;52.41
28267;BME280;15525;45.568;5.448;2023-04-22T05:49:11;97507.69;;;16.57;52.65
28267;BME280;15525;45.568;5.448;2023-04-22T05:51:36;97516.75;;;16.70;52.57
28267;BME280;15525;45.568;5.448;2023-04-22T05:54:02;97508.50;;;16.41;52.89
28267;BME280;15525;45.568;5.448;2023-04-22T05:56:27;97527.09;;;16.42;53.26
28267;BME280;15525;45.568;5.448;2023-04-22T05:58:52;97525.16;;;16.68;52.66
28267;BME280;15525;45.568;5.448;2023-04-22T06:01:18;97524.47;;;16.88;52.42
28267;BME280;15525;45.568;5.448;2023-04-22T06:03:43;97519.97;;;17.01;52.14
28267;BME280;15525;45.568;5.448;2023-04-22T06:06:09;97530.78;;;17.01;52.20
28267;BME280;15525;45.568;5.448;2023-04-22T06:08:34;97534.31;;;17.01;52.17
28267;BME280;15525;45.568;5.448;2023-04-22T06:11:00;97549.50;;;17.31;52.04
28267;BME280;15525;45.568;5.448;2023-04-22T06:13:25;97535.97;;;17.31;51.81
28267;BME280;15525;45.568;5.448;2023-04-22T06:15:51;97521.97;;;17.29;51.82
28267;BME280;15525;45.568;5.448;2023-04-22T06:18:17;97535.31;;;17.34;51.55
28267;BME280;15525;45.568;5.448;2023-04-22T06:20:42;97550.31;;;17.23;51.72
28267;BME280;15525;45.568;5.448;2023-04-22T06:23:07;97541.56;;;17.18;51.94
28267;BME280;15525;45.568;5.448;2023-04-22T06:25:33;97548.22;;;17.29;52.17
28267;BME280;15525;45.568;5.448;2023-04-22T06:27:58;97558.06;;;17.33;52.42
28267;BME280;15525;45.568;5.448;2023-04-22T06:30:25;97556.78;;;17.39;52.17
28267;BME280;15525;45.568;5.448;2023-04-22T06:32:51;97548.38;;;17.32;52.39
28267;BME280;15525;45.568;5.448;2023-04-22T06:35:17;97540.13;;;17.29;52.14
28267;BME280;15525;45.568;5.448;2023-04-22T06:37:43;97535.16;;;17.31;51.92
28267;BME280;15525;45.568;5.448;2023-04-22T06:40:09;97536.81;;;17.61;51.64
28267;BME280;15525;45.568;5.448;2023-04-22T06:42:35;97525.75;;;17.74;51.39
28267;BME280;15525;45.568;5.448;2023-04-22T06:45:00;97553.28;;;18.05;50.91
28267;BME280;15525;45.568;5.448;2023-04-22T06:47:26;97539.22;;;18.12;50.80
28267;BME280;15525;45.568;5.448;2023-04-22T06:49:51;97536.50;;;18.12;50.56
28267;BME280;15525;45.568;5.448;2023-04-22T06:52:17;97552.91;;;18.36;50.50
28267;BME280;15525;45.568;5.448;2023-04-22T06:54:42;97545.75;;;18.52;50.06
28267;BME280;15525;45.568;5.448;2023-04-22T06:57:08;97538.59;;;18.68;49.63
28267;BME280;15525;45.568;5.448;2023-04-22T06:59:33;97546.38;;;18.90;49.66
28267;BME280;15525;45.568;5.448;2023-04-22T07:01:58;97526.00;;;18.84;49.29
28267;BME280;15525;45.568;5.448;2023-04-22T07:04:24;97542.03;;;19.21;48.88
28267;BME280;15525;45.568;5.448;2023-04-22T07:06:51;97543.63;;;19.22;48.90
28267;BME280;15525;45.568;5.448;2023-04-22T07:09:17;97565.59;;;19.29;48.76
28267;BME280;15525;45.568;5.448;2023-04-22T07:11:43;97556.16;;;19.15;48.74
28267;BME280;15525;45.568;5.448;2023-04-22T07:14:08;97562.22;;;19.32;48.54
28267;BME280;15525;45.568;5.448;2023-04-22T07:16:34;97577.63;;;19.52;48.19
28267;BME280;15525;45.568;5.448;2023-04-22T07:18:59;97577.28;;;19.54;48.06
28267;BME280;15525;45.568;5.448;2023-04-22T07:21:24;97575.94;;;19.60;47.69
28267;BME280;15525;45.568;5.448;2023-04-22T07:23:50;97567.13;;;19.63;47.39
28267;BME280;15525;45.568;5.448;2023-04-22T07:26:16;97581.59;;;19.91;47.16
28267;BME280;15525;45.568;5.448;2023-04-22T07:28:41;97578.00;;;19.99;46.45
28267;BME280;15525;45.568;5.448;2023-04-22T07:31:07;97567.22;;;20.14;46.53
28267;BME280;15525;45.568;5.448;2023-04-22T07:33:32;97553.53;;;20.23;46.21
28267;BME280;15525;45.568;5.448;2023-04-22T07:35:57;97553.59;;;20.38;45.75
28267;BME280;15525;45.568;5.448;2023-04-22T07:38:24;97577.56;;;20.60;44.81
28267;BME280;15525;45.568;5.448;2023-04-22T07:40:50;97557.25;;;20.30;44.82
28267;BME280;15525;45.568;5.448;2023-04-22T07:43:16;97565.97;;;20.12;45.03
28267;BME280;15525;45.568;5.448;2023-04-22T07:45:42;97565.19;;;19.99;44.98
28267;BME280;15525;45.568;5.448;2023-04-22T07:48:07;97566.88;;;19.92;45.01
28267;BME280;15525;45.568;5.448;2023-04-22T07:50:33;97561.78;;;20.02;44.92
28267;BME280;15525;45.568;5.448;2023-04-22T07:52:58;97574.69;;;20.17;44.71
28267;BME280;15525;45.568;5.448;2023-04-22T07:55:24;97555.91;;;20.12;44.62
28267;BME280;15525;45.568;5.448;2023-04-22T07:57:50;97541.41;;;19.72;44.67
28267;BME280;15525;45.568;5.448;2023-04-22T08:00:15;97558.28;;;19.66;44.21
28267;BME280;15525;45.568;5.448;2023-04-22T08:02:41;97587.47;;;19.57;43.79
28267;BME280;15525;45.568;5.448;2023-04-22T08:05:08;97580.72;;;18.86;42.79
28267;BME280;15525;45.568;5.448;2023-04-22T08:07:33;97584.16;;;18.74;42.43
28267;BME280;15525;45.568;5.448;2023-04-22T08:09:59;97601.78;;;19.01;42.27
28267;BME280;15525;45.568;5.448;2023-04-22T08:12:25;97592.22;;;18.83;42.04
28267;BME280;15525;45.568;5.448;2023-04-22T08:14:50;97584.81;;;18.71;42.05
28267;BME280;15525;45.568;5.448;2023-04-22T08:17:16;97591.34;;;18.91;41.47
28267;BME280;15525;45.568;5.448;2023-04-22T08:19:46;97597.44;;;19.20;41.27
28267;BME280;15525;45.568;5.448;2023-04-22T08:22:12;97561.00;;;19.09;41.13
28267;BME280;15525;45.568;5.448;2023-04-22T08:24:38;97580.16;;;19.25;41.37
28267;BME280;15525;45.568;5.448;2023-04-22T08:27:04;97584.38;;;19.34;41.81
28267;BME280;15525;45.568;5.448;2023-04-22T08:29:29;97572.28;;;19.32;41.95
28267;BME280;15525;45.568;5.448;2023-04-22T08:31:55;97574.88;;;19.40;42.51
28267;BME280;15525;45.568;5.448;2023-04-22T08:34:20;97608.19;;;19.73;42.61
28267;BME280;15525;45.568;5.448;2023-04-22T08:36:46;97579.44;;;19.72;42.58
28267;BME280;15525;45.568;5.448;2023-04-22T08:39:11;97582.28;;;19.64;42.50
28267;BME280;15525;45.568;5.448;2023-04-22T08:41:37;97576.19;;;19.67;42.43
28267;BME280;15525;45.568;5.448;2023-04-22T08:44:03;97589.53;;;19.72;42.46
28267;BME280;15525;45.568;5.448;2023-04-22T08:46:29;97569.50;;;19.64;42.22
28267;BME280;15525;45.568;5.448;2023-04-22T08:48:55;97574.03;;;19.60;42.17
28267;BME280;15525;45.568;5.448;2023-04-22T08:51:27;97588.94;;;19.54;41.87
28267;BME280;15525;45.568;5.448;2023-04-22T08:53:53;97591.00;;;19.69;41.79
28267;BME280;15525;45.568;5.448;2023-04-22T08:56:19;97575.84;;;19.80;41.37
28267;BME280;15525;45.568;5.448;2023-04-22T08:58:44;97617.81;;;20.07;40.94
28267;BME280;15525;45.568;5.448;2023-04-22T09:01:10;97595.16;;;20.03;41.48
28267;BME280;15525;45.568;5.448;2023-04-22T09:03:38;97613.56;;;20.18;41.81
28267;BME280;15525;45.568;5.448;2023-04-22T09:06:05;97612.72;;;20.05;41.68
28267;BME280;15525;45.568;5.448;2023-04-22T09:08:32;97635.13;;;19.90;41.51
28267;BME280;15525;45.568;5.448;2023-04-22T09:11:02;97615.66;;;19.64;41.44
28267;BME280;15525;45.568;5.448;2023-04-22T09:13:28;97631.28;;;19.67;41.43
28267;BME280;15525;45.568;5.448;2023-04-22T09:15:53;97622.13;;;19.27;40.68
28267;BME280;15525;45.568;5.448;2023-04-22T09:18:18;97619.03;;;19.17;40.67
28267;BME280;15525;45.568;5.448;2023-04-22T09:20:47;97628.38;;;19.07;40.32
28267;BME280;15525;45.568;5.448;2023-04-22T09:23:13;97619.47;;;19.19;40.32
28267;BME280;15525;45.568;5.448;2023-04-22T09:25:39;97636.19;;;19.41;39.94
28267;BME280;15525;45.568;5.448;2023-04-22T09:28:05;97638.38;;;18.95;40.54
28267;BME280;15525;45.568;5.448;2023-04-22T09:30:35;97640.81;;;19.08;40.39
28267;BME280;15525;45.568;5.448;2023-04-22T09:33:03;97634.81;;;19.23;40.07
28267;BME280;15525;45.568;5.448;2023-04-22T09:35:31;97606.00;;;19.10;40.15
28267;BME280;15525;45.568;5.448;2023-04-22T09:37:58;97618.53;;;19.23;39.94
28267;BME280;15525;45.568;5.448;2023-04-22T09:40:24;97614.59;;;19.12;39.80
28267;BME280;15525;45.568;5.448;2023-04-22T09:42:52;97636.00;;;19.46;39.77
28267;BME280;15525;45.568;5.448;2023-04-22T09:45:46;97625.72;;;19.64;38.33
28267;BME280;15525;45.568;5.448;2023-04-22T09:48:17;97628.78;;;19.86;38.82
28267;BME280;15525;45.568;5.448;2023-04-22T09:50:48;97616.38;;;20.09;38.55
28267;BME280;15525;45.568;5.448;2023-04-22T09:53:16;97629.63;;;19.99;38.87
28267;BME280;15525;45.568;5.448;2023-04-22T09:55:44;97637.41;;;19.88;39.26
28267;BME280;15525;45.568;5.448;2023-04-22T09:58:12;97635.94;;;20.03;39.56
28267;BME280;15525;45.568;5.448;2023-04-22T10:00:41;97650.38;;;20.15;39.29
28267;BME280;15525;45.568;5.448;2023-04-22T10:03:07;97638.59;;;20.11;39.58
28267;BME280;15525;45.568;5.448;2023-04-22T10:05:34;97636.53;;;19.96;39.33
28267;BME280;15525;45.568;5.448;2023-04-22T10:08:03;97648.41;;;19.92;39.36
28267;BME280;15525;45.568;5.448;2023-04-22T10:10:29;97623.84;;;19.88;39.58
28267;BME280;15525;45.568;5.448;2023-04-22T10:12:55;97633.03;;;20.08;39.83
28267;BME280;15525;45.568;5.448;2023-04-22T10:15:21;97640.59;;;20.02;39.96
28267;BME280;15525;45.568;5.448;2023-04-22T10:17:47;97620.66;;;19.98;39.87
28267;BME280;15525;45.568;5.448;2023-04-22T10:20:16;97615.25;;;20.10;39.72
28267;BME280;15525;45.568;5.448;2023-04-22T10:22:43;97634.50;;;20.17;39.42
28267;BME280;15525;45.568;5.448;2023-04-22T10:25:14;97639.72;;;20.10;38.07
28267;BME280;15525;45.568;5.448;2023-04-22T10:28:00;97635.84;;;19.87;39.17
28267;BME280;15525;45.568;5.448;2023-04-22T10:30:31;97618.84;;;20.02;38.80
28267;BME280;15525;45.568;5.448;2023-04-22T10:38:40;97626.34;;;20.29;38.69
28267;BME280;15525;45.568;5.448;2023-04-22T10:41:06;97614.44;;;20.34;38.38
28267;BME280;15525;45.568;5.448;2023-04-22T10:43:50;97619.69;;;20.66;38.25
28267;BME280;15525;45.568;5.448;2023-04-22T10:49:04;97609.13;;;20.77;38.39
28267;BME280;15525;45.568;5.448;2023-04-22T10:51:43;97603.41;;;20.94;39.08
28267;BME280;15525;45.568;5.448;2023-04-22T11:00:00;97574.78;;;20.72;39.44
28267;BME280;15525;45.568;5.448;2023-04-22T11:02:40;97575.03;;;20.67;39.64
28267;BME280;15525;45.568;5.448;2023-04-22T11:05:22;97574.63;;;20.53;39.53
28267;BME280;15525;45.568;5.448;2023-04-22T11:07:54;97573.94;;;20.56;39.63
28267;BME280;15525;45.568;5.448;2023-04-22T11:10:37;97584.34;;;20.66;39.68
28267;BME280;15525;45.568;5.448;2023-04-22T11:13:14;97588.13;;;20.77;39.78
28267;BME280;15525;45.568;5.448;2023-04-22T11:15:42;97588.22;;;20.93;39.25
28267;BME280;15525;45.568;5.448;2023-04-22T11:18:21;97570.28;;;21.04;38.56
28267;BME280;15525;45.568;5.448;2023-04-22T11:20:47;97568.91;;;21.26;38.75
28267;BME280;15525;45.568;5.448;2023-04-22T11:23:18;97565.75;;;21.39;38.65
28267;BME280;15525;45.568;5.448;2023-04-22T11:25:45;97553.00;;;21.59;38.70
28267;BME280;15525;45.568;5.448;2023-04-22T11:28:10;97557.84;;;21.65;38.82
28267;BME280;15525;45.568;5.448;2023-04-22T11:30:36;97553.66;;;21.83;38.35
28267;BME280;15525;45.568;5.448;2023-04-22T11:33:01;97561.06;;;22.02;38.68
28267;BME280;15525;45.568;5.448;2023-04-22T11:35:31;97557.06;;;21.96;38.66
28267;BME280;15525;45.568;5.448;2023-04-22T11:38:01;97551.88;;;21.75;39.12
28267;BME280;15525;45.568;5.448;2023-04-22T11:40:31;97558.19;;;21.64;39.31
28267;BME280;15525;45.568;5.448;2023-04-22T11:42:59;97554.16;;;21.42;39.81
28267;BME280;15525;45.568;5.448;2023-04-22T11:45:26;97544.22;;;21.50;39.50
28267;BME280;15525;45.568;5.448;2023-04-22T11:47:52;97536.06;;;21.50;39.65
28267;BME280;15525;45.568;5.448;2023-04-22T11:50:21;97533.75;;;21.52;40.00
28267;BME280;15525;45.568;5.448;2023-04-22T11:53:00;97524.97;;;21.43;40.64
28267;BME280;15525;45.568;5.448;2023-04-22T11:55:31;97539.69;;;21.11;41.68
28267;BME280;15525;45.568;5.448;2023-04-22T12:00:39;97561.00;;;21.67;40.64
28267;BME280;15525;45.568;5.448;2023-04-22T12:05:43;97549.06;;;21.56;40.40
28267;BME280;15525;45.568;5.448;2023-04-22T12:08:13;97552.41;;;21.65;40.34
28267;BME280;15525;45.568;5.448;2023-04-22T12:10:53;97535.19;;;21.77;39.99
28267;BME280;15525;45.568;5.448;2023-04-22T12:13:24;97547.13;;;21.88;38.97
28267;BME280;15525;45.568;5.448;2023-04-22T12:15:58;97538.59;;;21.58;37.84
28267;BME280;15525;45.568;5.448;2023-04-22T12:18:36;97544.16;;;21.77;37.31
28267;BME280;15525;45.568;5.448;2023-04-22T12:23:49;97524.09;;;22.20;36.67
28267;BME280;15525;45.568;5.448;2023-04-22T12:26:16;97508.81;;;22.50;37.19
28267;BME280;15525;45.568;5.448;2023-04-22T12:28:43;97520.56;;;22.73;37.40
28267;BME280;15525;45.568;5.448;2023-04-22T12:31:09;97506.38;;;22.86;36.81
28267;BME280;15525;45.568;5.448;2023-04-22T12:33:35;97517.22;;;23.02;36.90
28267;BME280;15525;45.568;5.448;2023-04-22T12:36:01;97513.41;;;23.06;37.14
28267;BME280;15525;45.568;5.448;2023-04-22T12:38:27;97535.81;;;23.15;37.17
28267;BME280;15525;45.568;5.448;2023-04-22T12:40:53;97540.34;;;23.27;36.74
28267;BME280;15525;45.568;5.448;2023-04-22T12:43:19;97539.63;;;23.11;36.43
28267;BME280;15525;45.568;5.448;2023-04-22T12:45:44;97550.53;;;23.11;35.86
28267;BME280;15525;45.568;5.448;2023-04-22T12:48:10;97538.50;;;22.93;36.14
28267;BME280;15525;45.568;5.448;2023-04-22T12:50:35;97542.31;;;22.88;36.00
28267;BME280;15525;45.568;5.448;2023-04-22T12:53:01;97549.56;;;23.00;35.92
28267;BME280;15525;45.568;5.448;2023-04-22T12:55:27;97523.59;;;23.09;35.64
28267;BME280;15525;45.568;5.448;2023-04-22T12:57:52;97531.09;;;23.35;35.20
28267;BME280;15525;45.568;5.448;2023-04-22T13:00:18;97508.66;;;23.45;35.30
28267;BME280;15525;45.568;5.448;2023-04-22T13:02:45;97525.41;;;23.02;35.31
28267;BME280;15525;45.568;5.448;2023-04-22T13:05:12;97543.81;;;23.05;34.96
28267;BME280;15525;45.568;5.448;2023-04-22T13:07:39;97528.41;;;22.74;35.08
28267;BME280;15525;45.568;5.448;2023-04-22T13:10:07;97551.81;;;22.56;35.27
28267;BME280;15525;45.568;5.448;2023-04-22T13:12:33;97542.50;;;22.42;34.76
28267;BME280;15525;45.568;5.448;2023-04-22T13:14:58;97554.31;;;22.46;34.83
28267;BME280;15525;45.568;5.448;2023-04-22T13:17:24;97550.16;;;22.71;34.49
28267;BME280;15525;45.568;5.448;2023-04-22T13:19:50;97542.81;;;22.75;34.33